Inola, Oklahoma
Current Conditions -  °F | °C
As of 8:35 PM on Sunday 25 Jan 2015 (Local Time) from KGCM Reporting Station
Clear Clear  
Wind Chill: 35°   Ceiling: Unl
Heat Index: 41°   Visibility: 10mi
Dew Point: 32°   Wind: 10mph
Humidity: 70%   Direction: 360°N
Pressure: 30.14"   Gusts: 21mph
Location:  36.15°N, 95.51°W
Report Text: KGCM 260235Z AUTO 36009G18KT 10SM CLR 05/00 A3014 RMK AO2
Loading
Personal Weather Stations






























Interactive Weather Map New forecast layout! Learn more

10-Day Weather Forecast

Advertisements
Track Severe Weather on mobile